Time;durP1;ratioP1;P1;durP2;ratioP2;P2;SDS_P1;SDS_P2;PMS_P1;PMS_P2;Temp;Humidity;BMP_temperature;BMP_pressure;BME280_temperature;BME280_humidity;BME280_pressure;Samples;Min_cycle;Max_cycle;Signal;HPM_P1;HPM_P2
2021/06/29 00:01:04;;;;;;;11.65;10.55;;;589.30;2176.00;;;;;;5069838;28;20419;-54
2021/06/29 00:03:29;;;;;;;11.02;9.93;;;589.40;2150.40;;;;;;5069717;28;20020;-56
2021/06/29 00:05:55;;;;;;;11.05;9.75;;;589.40;2176.00;;;;;;5069683;28;20490;-56
2021/06/29 00:08:21;;;;;;;10.65;9.55;;;589.40;2176.00;;;;;;5069850;28;20479;-55
2021/06/29 00:10:47;;;;;;;11.40;10.23;;;589.30;2176.00;;;;;;5069741;28;20480;-56
2021/06/29 00:13:14;;;;;;;11.88;10.68;;;589.20;2201.60;;;;;;5069802;28;20028;-58
2021/06/29 00:15:40;;;;;;;11.32;10.32;;;589.10;2201.60;;;;;;5068907;28;20043;-54
2021/06/29 00:18:06;;;;;;;13.80;10.95;;;589.10;2227.20;;;;;;5068015;28;20040;-56
2021/06/29 00:20:33;;;;;;;11.27;10.18;;;589.00;2278.40;;;;;;5071403;28;20028;-57
2021/06/29 00:22:59;;;;;;;11.82;10.45;;;588.80;2304.00;;;;;;5069723;28;20498;-52
2021/06/29 00:25:24;;;;;;;11.60;10.55;;;588.90;2252.80;;;;;;5072654;28;20032;-55
2021/06/29 00:27:50;;;;;;;11.23;10.13;;;588.90;2252.80;;;;;;5072959;28;20068;-56
2021/06/29 00:30:17;;;;;;;11.27;10.18;;;588.80;2278.40;;;;;;5072939;28;20036;-59
2021/06/29 00:32:43;;;;;;;11.15;10.05;;;564.10;2278.40;;;;;;5073128;28;20067;-55
2021/06/29 00:35:10;;;;;;;12.63;10.88;;;564.10;2278.40;;;;;;5072618;28;20024;-56
2021/06/29 00:37:36;;;;;;;12.38;10.98;;;564.00;2304.00;;;;;;5072407;28;20024;-54
2021/06/29 00:40:07;;;;;;;11.43;10.30;;;564.10;2278.40;;;;;;5073164;28;20542;-58
2021/06/29 00:42:33;;;;;;;10.98;9.88;;;564.10;2278.40;;;;;;5072886;28;20023;-54
2021/06/29 00:44:59;;;;;;;11.63;10.52;;;563.90;2329.60;;;;;;5072575;28;20029;-57
2021/06/29 00:47:25;;;;;;;10.77;9.77;;;563.80;2329.60;;;;;;5072535;28;20032;-55
2021/06/29 00:49:50;;;;;;;10.90;9.80;;;563.80;2329.60;;;;;;5072358;28;20492;-56
2021/06/29 00:52:17;;;;;;;11.98;10.65;;;563.90;2329.60;;;;;;5071840;28;20099;-54
2021/06/29 00:54:43;;;;;;;13.93;9.45;;;564.00;2304.00;;;;;;5072130;28;20497;-54
2021/06/29 00:57:11;;;;;;;11.43;10.32;;;564.00;2304.00;;;;;;5072427;28;20020;-54
2021/06/29 00:59:38;;;;;;;11.15;10.05;;;564.10;2278.40;;;;;;5072598;28;20432;-54
2021/06/29 01:02:04;;;;;;;11.20;10.07;;;564.10;2278.40;;;;;;5072635;28;20494;-54
2021/06/29 01:04:31;;;;;;;11.93;10.38;;;564.10;2278.40;;;;;;5072423;28;20033;-54
2021/06/29 01:06:58;;;;;;;11.38;10.27;;;564.10;2278.40;;;;;;5072125;28;20036;-54
2021/06/29 01:09:24;;;;;;;10.82;9.80;;;564.10;2278.40;;;;;;5072248;28;20032;-54
2021/06/29 01:11:50;;;;;;;11.52;10.13;;;564.00;2278.40;;;;;;5072412;28;20052;-54
2021/06/29 01:14:17;;;;;;;9.75;8.85;;;564.10;2278.40;;;;;;5072497;28;20415;-54
2021/06/29 01:16:44;;;;;;;12.38;10.40;;;564.10;2252.80;;;;;;5072227;28;20518;-54
2021/06/29 01:19:18;;;;;;;13.45;10.40;;;564.10;2252.80;;;;;;5054501;28;20438;-53
2021/06/29 01:21:46;;;;;;;13.10;9.98;;;564.10;2278.40;;;;;;5072185;28;20020;-55
2021/06/29 01:24:15;;;;;;;10.35;9.27;;;564.10;2278.40;;;;;;5072361;28;20203;-54
2021/06/29 01:31:00;;;;;;;11.45;10.35;;;564.10;2278.40;;;;;;5010154;28;20052;-54
2021/06/29 01:32:18;;;;;;;13.15;10.35;;;564.10;2278.40;;;;;;5009212;28;20042;-54
2021/06/29 01:34:44;;;;;;;12.60;9.52;;;564.10;2278.40;;;;;;5010184;28;20433;-54
2021/06/29 01:37:11;;;;;;;10.23;9.20;;;564.10;2304.00;;;;;;5010211;28;20022;-54
2021/06/29 01:39:36;;;;;;;11.02;9.95;;;564.10;2304.00;;;;;;5009797;28;20061;-53
2021/06/29 01:42:03;;;;;;;11.82;10.73;;;564.10;2304.00;;;;;;5010048;28;20065;-54
2021/06/29 01:44:34;;;;;;;12.18;11.00;;;564.10;2329.60;;;;;;5009629;28;20034;-54
2021/06/29 01:47:03;;;;;;;13.27;10.40;;;564.10;2329.60;;;;;;5009466;28;20425;-54
2021/06/29 01:49:29;;;;;;;15.70;11.38;;;563.80;2329.60;;;;;;5009397;28;20034;-54
2021/06/29 01:51:56;;;;;;;12.48;11.20;;;563.90;2329.60;;;;;;5009769;28;20552;-54
2021/06/29 01:54:22;;;;;;;12.38;11.07;;;563.80;2355.20;;;;;;5009845;28;20041;-55
2021/06/29 01:56:49;;;;;;;12.30;11.00;;;563.80;2380.80;;;;;;5009776;28;20030;-54
2021/06/29 01:59:19;;;;;;;13.63;11.40;;;563.80;2355.20;;;;;;5009747;28;20108;-54
2021/06/29 02:01:45;;;;;;;12.38;11.15;;;563.80;2355.20;;;;;;5009375;28;20069;-55
2021/06/29 02:04:11;;;;;;;12.57;11.00;;;563.80;2355.20;;;;;;5009822;28;20072;-53
2021/06/29 02:06:38;;;;;;;11.68;10.57;;;563.80;2380.80;;;;;;5043154;28;20440;-53
2021/06/29 02:09:11;;;;;;;12.20;9.88;;;563.70;2355.20;;;;;;5071298;28;20115;-54
2021/06/29 02:11:38;;;;;;;12.18;9.38;;;563.70;2329.60;;;;;;5071289;28;20375;-55
2021/06/29 02:14:06;;;;;;;10.20;9.20;;;563.80;2329.60;;;;;;5071337;28;20368;-54
2021/06/29 02:16:32;;;;;;;13.77;11.13;;;563.80;2355.20;;;;;;5070927;28;20526;-54
2021/06/29 02:18:57;;;;;;;11.05;9.95;;;563.80;2329.60;;;;;;5071054;28;20029;-54
2021/06/29 02:21:23;;;;;;;11.95;10.85;;;563.80;2329.60;;;;;;5071374;28;20182;-54
2021/06/29 02:24:07;;;;;;;11.65;10.48;;;563.80;2329.60;;;;;;4989498;28;20073;-55
2021/06/29 02:26:33;;;;;;;12.05;10.82;;;563.80;2329.60;;;;;;4989726;28;20483;-54
2021/06/29 02:28:59;;;;;;;13.02;11.57;;;563.80;2355.20;;;;;;4989400;28;20129;-55
2021/06/29 02:31:25;;;;;;;13.00;11.75;;;563.70;2355.20;;;;;;4989562;28;20515;-55
2021/06/29 02:33:50;;;;;;;12.50;11.27;;;563.60;2380.80;;;;;;4989465;28;20040;-53
2021/06/29 02:36:16;;;;;;;12.15;10.90;;;563.60;2380.80;;;;;;4989216;28;20038;-54
2021/06/29 02:38:42;;;;;;;15.93;11.57;;;563.60;2406.40;;;;;;4989550;28;20488;-54
2021/06/29 02:41:07;;;;;;;14.95;11.20;;;563.60;2380.80;;;;;;4989164;28;20054;-54
2021/06/29 02:43:36;;;;;;;12.77;11.48;;;563.50;2406.40;;;;;;4988673;28;20027;-54
2021/06/29 02:46:01;;;;;;;12.40;11.05;;;563.50;2406.40;;;;;;4988810;28;20077;-54
2021/06/29 02:48:27;;;;;;;14.10;11.50;;;563.50;2380.80;;;;;;4988810;28;20066;-54
2021/06/29 02:50:53;;;;;;;11.65;10.55;;;563.60;2380.80;;;;;;4989390;28;20040;-54
2021/06/29 02:53:20;;;;;;;12.10;10.85;;;563.60;2380.80;;;;;;4988857;28;20027;-54
2021/06/29 02:55:46;;;;;;;13.43;12.02;;;563.60;2380.80;;;;;;4989232;28;20073;-54
2021/06/29 02:58:13;;;;;;;13.77;12.02;;;563.60;2380.80;;;;;;4989082;28;20034;-53
2021/06/29 03:00:38;;;;;;;12.52;11.10;;;563.60;2380.80;;;;;;5011097;28;20033;-54
2021/06/29 03:03:04;;;;;;;13.95;11.88;;;563.60;2380.80;;;;;;5070407;28;20360;-53
2021/06/29 03:05:30;;;;;;;12.38;11.18;;;563.60;2380.80;;;;;;5070371;28;20016;-54
2021/06/29 03:07:55;;;;;;;12.25;10.73;;;563.60;2380.80;;;;;;5070275;28;20028;-55
2021/06/29 03:10:21;;;;;;;12.70;11.15;;;563.60;2380.80;;;;;;5070457;28;20411;-53
2021/06/29 03:12:47;;;;;;;13.32;10.68;;;563.70;2355.20;;;;;;5069787;28;20029;-53
2021/06/29 03:15:13;;;;;;;13.07;10.25;;;563.80;2355.20;;;;;;5069843;28;20062;-54
2021/06/29 03:17:39;;;;;;;19.02;11.43;;;563.80;2355.20;;;;;;5069635;28;20037;-55
2021/06/29 03:20:08;;;;;;;18.00;11.88;;;563.90;2355.20;;;;;;5069907;28;20486;-54
2021/06/29 03:22:34;;;;;;;16.27;12.23;;;563.90;2329.60;;;;;;5070309;28;20028;-54
2021/06/29 03:25:00;;;;;;;14.30;11.38;;;563.90;2355.20;;;;;;5070216;28;20024;-55
2021/06/29 03:27:26;;;;;;;17.08;10.90;;;563.90;2355.20;;;;;;5070032;28;20432;-55
2021/06/29 03:29:51;;;;;;;18.20;11.25;;;564.00;2329.60;;;;;;5070106;28;20421;-54
2021/06/29 03:32:17;;;;;;;12.57;11.18;;;564.10;2355.20;;;;;;5069971;28;20566;-55
2021/06/29 03:34:43;;;;;;;11.98;10.77;;;564.10;2355.20;;;;;;5070218;28;20032;-54
2021/06/29 03:37:09;;;;;;;12.57;11.38;;;564.10;2355.20;;;;;;5069682;28;20021;-54
2021/06/29 03:39:35;;;;;;;12.07;10.85;;;564.10;2329.60;;;;;;5069832;28;20025;-54
2021/06/29 03:42:01;;;;;;;13.98;11.60;;;588.80;2329.60;;;;;;5069913;28;20086;-54
2021/06/29 03:44:27;;;;;;;15.73;11.85;;;588.80;2329.60;;;;;;5069518;28;20112;-57
2021/06/29 03:46:52;;;;;;;16.58;12.50;;;588.80;2329.60;;;;;;5069949;28;20032;-54
2021/06/29 03:49:18;;;;;;;13.23;11.85;;;588.80;2355.20;;;;;;5069057;28;20036;-56
2021/06/29 03:51:44;;;;;;;14.10;12.02;;;588.90;2329.60;;;;;;5069453;28;20021;-55
2021/06/29 03:54:10;;;;;;;12.88;11.57;;;589.00;2304.00;;;;;;5071478;28;20028;-57
2021/06/29 03:56:36;;;;;;;13.65;11.45;;;589.10;2329.60;;;;;;5073223;28;20378;-54
2021/06/29 03:59:07;;;;;;;15.50;13.20;;;589.10;2329.60;;;;;;5073585;28;20029;-55
2021/06/29 04:01:33;;;;;;;17.17;12.23;;;589.10;2329.60;;;;;;5074074;28;20017;-54
2021/06/29 04:04:00;;;;;;;13.35;12.05;;;589.10;2329.60;;;;;;5073481;28;20106;-54
2021/06/29 04:06:32;;;;;;;14.32;11.75;;;589.30;2329.60;;;;;;5073676;28;20029;-55
2021/06/29 04:08:59;;;;;;;13.35;11.77;;;589.30;2304.00;;;;;;5073551;28;20123;-55
2021/06/29 04:11:28;;;;;;;13.82;12.52;;;589.40;2278.40;;;;;;5072951;28;20016;-56
2021/06/29 04:13:55;;;;;;;15.90;11.23;;;589.50;2278.40;;;;;;5073554;28;20035;-54
2021/06/29 04:16:20;;;;;;;13.35;12.10;;;589.60;2252.80;;;;;;5073185;28;20067;-55
2021/06/29 04:18:47;;;;;;;12.15;10.90;;;589.70;2252.80;;;;;;5073356;28;20553;-54
2021/06/29 04:21:13;;;;;;;13.55;12.00;;;614.40;2227.20;;;;;;5073430;28;20119;-55
2021/06/29 04:23:42;;;;;;;13.10;11.80;;;614.70;2227.20;;;;;;5073332;28;20028;-55
2021/06/29 04:26:09;;;;;;;12.57;11.38;;;614.80;2201.60;;;;;;5073016;28;20027;-54
2021/06/29 04:28:34;;;;;;;14.02;12.25;;;615.00;2176.00;;;;;;5072931;28;20435;-56
2021/06/29 04:31:00;;;;;;;14.13;12.57;;;615.00;2176.00;;;;;;5073134;28;20059;-54
2021/06/29 04:33:26;;;;;;;12.80;11.60;;;615.10;2176.00;;;;;;5073145;28;20052;-54
2021/06/29 04:35:52;;;;;;;12.35;11.02;;;640.90;2048.00;;;;;;5073229;28;20433;-55
2021/06/29 04:38:17;;;;;;;12.38;11.15;;;692.10;1894.40;;;;;;5072839;28;20089;-54
2021/06/29 04:40:43;;;;;;;13.30;11.90;;;743.00;1792.00;;;;;;5072869;28;20020;-56
2021/06/29 04:43:09;;;;;;;13.10;11.75;;;794.00;1638.40;;;;;;5072687;28;20025;-54
2021/06/29 04:45:35;;;;;;;12.60;11.48;;;844.90;1510.40;;;;;;5072418;28;20471;-54
2021/06/29 04:48:01;;;;;;;12.10;11.02;;;870.90;1382.40;;;;;;5072848;28;20044;-54
2021/06/29 04:50:26;;;;;;;14.65;11.85;;;896.30;1305.60;;;;;;5072510;28;20538;-53
2021/06/29 04:52:52;;;;;;;11.80;10.60;;;921.80;1254.40;;;;;;5072649;28;20027;-56
2021/06/29 04:55:19;;;;;;;12.10;10.85;;;947.80;1152.00;;;;;;5072404;28;20056;-55
2021/06/29 04:57:45;;;;;;;13.60;12.30;;;972.90;1126.40;;;;;;5072490;28;20479;-55
2021/06/29 05:00:15;;;;;;;12.95;11.88;;;973.10;1100.80;;;;;;5072540;28;20039;-55
2021/06/29 05:02:40;;;;;;;13.05;12.00;;;973.70;1049.60;;;;;;5072620;28;20020;-54
2021/06/29 05:05:07;;;;;;;13.70;12.60;;;999.10;1024.00;;;;;;5071505;28;20027;-55
2021/06/29 05:07:36;;;;;;;12.68;11.45;;;999.30;998.40;;;;;;5072642;28;20025;-56
2021/06/29 05:10:03;;;;;;;14.70;12.95;;;1024.10;998.40;;;;;;5072403;28;20037;-55
2021/06/29 05:12:28;;;;;;;15.38;13.88;;;998.80;1024.00;;;;;;5072201;28;20020;-55
2021/06/29 05:14:54;;;;;;;14.43;13.05;;;999.00;1024.00;;;;;;5072101;28;20050;-60
2021/06/29 05:17:20;;;;;;;15.48;14.13;;;1024.30;972.80;;;;;;5072495;28;20021;-58
2021/06/29 05:19:45;;;;;;;12.77;11.60;;;1049.60;972.80;;;;;;5072135;28;20035;-55
2021/06/29 05:22:11;;;;;;;13.70;12.60;;;1050.10;972.80;;;;;;5072267;28;20066;-56
2021/06/29 05:24:37;;;;;;;13.35;12.35;;;1050.30;947.20;;;;;;5071965;28;20467;-55
2021/06/29 05:27:03;;;;;;;12.43;11.32;;;1075.20;947.20;;;;;;5072205;28;20017;-55
2021/06/29 05:29:28;;;;;;;11.43;10.40;;;1075.90;921.60;;;;;;5071764;28;20029;-56
2021/06/29 05:31:54;;;;;;;12.05;11.05;;;1101.10;896.00;;;;;;5072016;28;20027;-55
2021/06/29 05:34:20;;;;;;;12.55;11.52;;;1100.90;921.60;;;;;;5071873;28;20115;-56
2021/06/29 05:36:46;;;;;;;11.70;10.65;;;1101.60;870.40;;;;;;5071865;28;20025;-55
2021/06/29 05:39:15;;;;;;;13.27;12.27;;;1126.70;870.40;;;;;;5055258;28;20064;-55
2021/06/29 05:41:41;;;;;;;15.95;14.80;;;1152.10;819.20;;;;;;5061093;28;20025;-56
2021/06/29 05:44:07;;;;;;;17.02;15.77;;;1177.70;768.00;;;;;;5064943;28;20110;-55
2021/06/29 05:46:33;;;;;;;16.00;15.00;;;1177.70;768.00;;;;;;5060868;28;20474;-56
2021/06/29 05:48:58;;;;;;;15.75;14.52;;;1203.40;742.40;;;;;;5060100;28;20039;-55
2021/06/29 05:51:24;;;;;;;15.75;14.52;;;1203.70;742.40;;;;;;5058968;28;20021;-56
2021/06/29 05:53:50;;;;;;;17.30;16.00;;;1229.00;742.40;;;;;;5064427;28;20523;-55
2021/06/29 05:56:16;;;;;;;17.35;16.30;;;1254.40;716.80;;;;;;5071367;28;20124;-56
2021/06/29 05:58:42;;;;;;;17.75;16.20;;;1254.90;716.80;;;;;;5071362;28;20090;-56
2021/06/29 06:01:08;;;;;;;17.55;16.15;;;1254.40;716.80;;;;;;5071292;28;20528;-56
2021/06/29 06:03:34;;;;;;;20.05;18.25;;;1254.40;716.80;;;;;;5071624;28;20037;-56
2021/06/29 06:06:00;;;;;;;18.85;17.55;;;1254.40;716.80;;;;;;5068267;28;20013;-57
2021/06/29 06:08:26;;;;;;;19.23;17.90;;;1255.30;665.60;;;;;;5052076;28;20119;-56
2021/06/29 06:10:55;;;;;;;19.10;17.80;;;1280.50;640.00;;;;;;5071117;28;20468;-56
2021/06/29 06:13:21;;;;;;;23.55;21.80;;;1280.70;640.00;;;;;;5071103;28;20040;-56
2021/06/29 06:15:47;;;;;;;20.52;19.33;;;1305.90;614.40;;;;;;5070625;28;20060;-56
2021/06/29 06:18:13;;;;;;;25.50;23.60;;;1306.00;614.40;;;;;;5070008;28;20041;-56
2021/06/29 06:20:39;;;;;;;22.20;20.77;;;1331.40;588.80;;;;;;5070855;28;20086;-57
2021/06/29 06:23:06;;;;;;;24.08;22.10;;;1331.40;588.80;;;;;;5070633;28;20035;-57
2021/06/29 06:25:33;;;;;;;22.98;21.38;;;1331.20;588.80;;;;;;5070990;28;20028;-56
2021/06/29 06:27:59;;;;;;;20.95;19.55;;;1331.90;588.80;;;;;;5070475;28;20025;-56
2021/06/29 06:30:25;;;;;;;24.67;23.17;;;1332.10;588.80;;;;;;5070720;28;20061;-57
2021/06/29 06:32:51;;;;;;;21.73;20.20;;;1356.80;588.80;;;;;;5070923;28;20016;-56
2021/06/29 06:35:17;;;;;;;21.80;20.50;;;1305.70;614.40;;;;;;5070531;28;20547;-56
2021/06/29 06:37:43;;;;;;;22.08;20.67;;;1305.90;588.80;;;;;;5070935;28;20024;-56
2021/06/29 06:40:10;;;;;;;20.92;19.83;;;1356.80;588.80;;;;;;5070588;28;20490;-56
2021/06/29 06:42:36;;;;;;;20.48;18.88;;;1356.90;588.80;;;;;;5070502;28;20534;-56
2021/06/29 06:45:04;;;;;;;22.00;20.60;;;1357.10;588.80;;;;;;5070394;28;20032;-56
2021/06/29 06:47:31;;;;;;;21.10;19.90;;;1357.20;588.80;;;;;;5070687;28;20036;-56
2021/06/29 06:49:57;;;;;;;22.00;20.48;;;1356.80;588.80;;;;;;5070461;28;20090;-56
2021/06/29 06:52:23;;;;;;;22.92;21.23;;;1331.70;563.20;;;;;;5051934;28;20483;-56
2021/06/29 06:54:48;;;;;;;21.75;20.20;;;1357.10;563.20;;;;;;5070358;28;20480;-57
2021/06/29 06:57:14;;;;;;;22.75;21.15;;;1357.20;563.20;;;;;;5070495;28;20795;-56
2021/06/29 06:59:40;;;;;;;22.70;21.35;;;1382.40;563.20;;;;;;5070565;28;20067;-56
2021/06/29 07:02:06;;;;;;;23.25;21.75;;;1357.20;588.80;;;;;;5070173;28;20371;-56
2021/06/29 07:04:32;;;;;;;23.75;22.15;;;1357.20;563.20;;;;;;5070423;28;20036;-56
2021/06/29 07:06:57;;;;;;;23.50;21.35;;;1356.90;563.20;;;;;;5051830;28;20037;-59
2021/06/29 07:09:23;;;;;;;23.80;22.02;;;1357.50;563.20;;;;;;5052313;28;20041;-55
2021/06/29 07:11:49;;;;;;;24.00;22.23;;;1382.40;563.20;;;;;;5070178;28;20387;-54
2021/06/29 07:14:15;;;;;;;26.95;21.45;;;1356.90;563.20;;;;;;5069759;28;20489;-57
2021/06/29 07:16:42;;;;;;;26.88;21.88;;;1332.10;563.20;;;;;;5070009;28;20052;-57
2021/06/29 07:19:08;;;;;;;26.00;23.38;;;1306.50;563.20;;;;;;5070107;28;20039;-57
2021/06/29 07:21:33;;;;;;;25.08;22.45;;;1331.40;588.80;;;;;;5070250;28;20021;-57
2021/06/29 07:24:00;;;;;;;21.52;19.58;;;1331.40;563.20;;;;;;5069958;28;20562;-57
2021/06/29 07:26:26;;;;;;;24.95;22.58;;;1331.90;563.20;;;;;;5070044;28;20032;-57
2021/06/29 07:28:52;;;;;;;22.42;20.33;;;1356.80;563.20;;;;;;5069684;28;20044;-57
2021/06/29 07:31:18;;;;;;;23.33;20.88;;;1332.10;537.60;;;;;;5069244;28;20020;-56
2021/06/29 07:33:48;;;;;;;23.88;21.70;;;1331.70;563.20;;;;;;5070031;28;20328;-57
2021/06/29 07:36:15;;;;;;;23.45;21.20;;;1331.90;537.60;;;;;;5070060;28;20051;-56
2021/06/29 07:38:42;;;;;;;30.85;20.20;;;1356.90;563.20;;;;;;5052009;28;20386;-55
2021/06/29 07:41:08;;;;;;;23.45;21.08;;;1357.40;537.60;;;;;;5069672;28;20046;-57
2021/06/29 07:43:34;;;;;;;21.67;19.77;;;1331.90;563.20;;;;;;5069975;28;20056;-57
2021/06/29 07:46:00;;;;;;;22.60;20.08;;;1331.90;537.60;;;;;;5069689;28;20028;-57
2021/06/29 07:48:26;;;;;;;21.80;19.58;;;1331.70;563.20;;;;;;5069879;28;20119;-57
2021/06/29 07:50:51;;;;;;;22.52;20.17;;;1306.30;563.20;;;;;;5070025;28;20406;-57
2021/06/29 07:53:17;;;;;;;21.38;18.98;;;1306.50;537.60;;;;;;5069651;28;20531;-56
2021/06/29 07:55:43;;;;;;;20.02;18.42;;;1332.10;537.60;;;;;;5069881;28;20471;-57
2021/06/29 07:58:09;;;;;;;21.40;19.75;;;1356.90;563.20;;;;;;5069605;28;20020;-57
2021/06/29 08:00:37;;;;;;;21.05;19.13;;;1357.10;537.60;;;;;;5069618;28;20020;-57
2021/06/29 08:03:04;;;;;;;20.88;18.98;;;1382.60;563.20;;;;;;5069798;28;20017;-57
2021/06/29 08:05:30;;;;;;;16.83;15.13;;;1382.40;563.20;;;;;;5069931;28;20055;-57
2021/06/29 08:07:56;;;;;;;20.60;18.63;;;1382.60;563.20;;;;;;5069734;28;20028;-57
2021/06/29 08:10:22;;;;;;;19.30;17.83;;;1357.50;537.60;;;;;;5069870;28;20029;-56
2021/06/29 08:12:49;;;;;;;17.85;16.55;;;1356.80;537.60;;;;;;5069487;28;20020;-56
2021/06/29 08:15:17;;;;;;;16.98;15.77;;;1306.20;486.40;;;;;;5069280;28;20414;-57
2021/06/29 08:17:45;;;;;;;16.27;14.98;;;1280.20;537.60;;;;;;5069614;28;20043;-57
2021/06/29 08:20:12;;;;;;;13.77;12.68;;;1228.80;614.40;;;;;;5069818;28;20024;-56
2021/06/29 08:22:38;;;;;;;11.70;10.70;;;1177.80;614.40;;;;;;5069420;28;20491;-56
2021/06/29 08:25:06;;;;;;;11.40;10.35;;;1127.30;665.60;;;;;;5069563;28;20027;-56
2021/06/29 08:27:31;;;;;;;11.30;10.20;;;1101.50;665.60;;;;;;5069614;28;20033;-56
2021/06/29 08:29:58;;;;;;;9.70;8.90;;;1075.90;691.20;;;;;;5069219;28;20398;-56
2021/06/29 08:32:25;;;;;;;8.65;7.68;;;1075.90;691.20;;;;;;5069543;28;20024;-56
2021/06/29 08:34:51;;;;;;;9.63;8.68;;;1075.60;691.20;;;;;;5069413;28;20048;-56
2021/06/29 08:37:17;;;;;;;10.02;9.00;;;1075.50;691.20;;;;;;5050647;28;20040;-56
2021/06/29 08:39:43;;;;;;;13.07;7.97;;;1075.20;716.80;;;;;;5069426;28;20423;-56
2021/06/29 08:42:10;;;;;;;8.23;7.35;;;1050.00;742.40;;;;;;5072050;28;20067;-56
2021/06/29 08:44:36;;;;;;;8.52;7.40;;;1050.10;742.40;;;;;;5072493;28;20085;-57
2021/06/29 08:47:02;;;;;;;9.32;7.28;;;1049.90;716.80;;;;;;5072774;28;20036;-55
2021/06/29 08:49:28;;;;;;;7.63;6.93;;;1049.90;716.80;;;;;;5053141;28;20526;-57
2021/06/29 08:51:57;;;;;;;7.70;7.00;;;1024.70;691.20;;;;;;5051620;28;20013;-56
2021/06/29 08:54:23;;;;;;;7.93;5.90;;;1024.70;691.20;;;;;;5051308;28;20060;-61
2021/06/29 08:56:49;;;;;;;16.05;6.63;;;1024.10;665.60;;;;;;5051183;28;20021;-56
2021/06/29 08:59:15;;;;;;;7.93;7.10;;;1024.10;691.20;;;;;;5033463;28;20067;-58
2021/06/29 09:01:41;;;;;;;7.10;5.70;;;1024.10;716.80;;;;;;5051403;28;20067;-61
2021/06/29 09:04:07;;;;;;;7.82;6.30;;;1024.00;716.80;;;;;;5051202;28;20459;-61
2021/06/29 09:06:37;;;;;;;8.98;6.60;;;999.20;716.80;;;;;;5065228;28;20132;-58
2021/06/29 09:09:29;;;;;;;12.13;6.40;;;999.10;716.80;;;;;;5060546;28;20032;-59
2021/06/29 09:11:57;;;;;;;9.77;6.20;;;999.10;742.40;;;;;;5038365;28;20029;-56
2021/06/29 09:14:29;;;;;;;9.40;6.70;;;998.80;742.40;;;;;;5060563;28;20020;-60
2021/06/29 09:17:17;;;;;;;9.10;5.63;;;998.60;768.00;;;;;;5068773;28;20052;-57
2021/06/29 09:19:43;;;;;;;10.45;6.10;;;998.50;768.00;;;;;;5068756;28;20090;-58
2021/06/29 09:22:32;;;;;;;7.40;6.47;;;998.50;793.60;;;;;;5069525;28;20478;-56
2021/06/29 09:24:58;;;;;;;10.02;6.32;;;973.70;768.00;;;;;;5069246;28;20031;-56
2021/06/29 09:27:41;;;;;;;7.50;5.90;;;973.70;742.40;;;;;;5069717;28;20025;-63
2021/06/29 09:30:31;;;;;;;7.15;6.43;;;973.60;716.80;;;;;;5069514;28;20037;-55
2021/06/29 09:33:00;;;;;;;9.98;6.65;;;973.60;742.40;;;;;;5069081;28;20024;-57
2021/06/29 09:35:26;;;;;;;10.85;7.35;;;973.30;768.00;;;;;;5069424;28;20032;-57
2021/06/29 09:37:52;;;;;;;12.30;6.90;;;973.30;742.40;;;;;;5068431;28;20016;-64
2021/06/29 09:40:19;;;;;;;8.60;7.35;;;973.20;768.00;;;;;;5069021;28;20020;-57
2021/06/29 09:42:45;;;;;;;8.35;7.50;;;973.20;742.40;;;;;;5069342;28;20483;-55
2021/06/29 09:45:33;;;;;;;10.63;7.63;;;973.10;768.00;;;;;;5068980;28;20103;-59
2021/06/29 09:47:59;;;;;;;6.97;6.38;;;973.00;768.00;;;;;;5068802;28;20029;-57
2021/06/29 09:50:48;;;;;;;13.05;8.02;;;973.20;742.40;;;;;;5068836;28;20044;-56
2021/06/29 09:53:18;;;;;;;8.50;7.70;;;973.20;768.00;;;;;;5067783;28;20182;-54
2021/06/29 09:55:47;;;;;;;8.52;7.72;;;972.80;768.00;;;;;;5068046;28;20025;-60
2021/06/29 10:00:56;;;;;;;10.88;8.32;;;948.10;742.40;;;;;;5069025;28;20020;-54
2021/06/29 10:03:24;;;;;;;13.65;8.57;;;948.10;742.40;;;;;;5067581;28;20086;-56
2021/06/29 10:05:52;;;;;;;8.70;7.90;;;948.10;716.80;;;;;;5068737;28;20024;-55
2021/06/29 10:08:28;;;;;;;9.45;8.55;;;972.90;768.00;;;;;;5068832;28;20477;-58
2021/06/29 10:11:10;;;;;;;9.35;7.10;;;972.90;768.00;;;;;;5068151;28;20024;-56
2021/06/29 10:13:52;;;;;;;9.15;8.20;;;973.00;768.00;;;;;;5068449;28;20536;-63
2021/06/29 10:16:23;;;;;;;12.82;8.35;;;972.80;793.60;;;;;;5067429;28;20045;-63
2021/06/29 10:18:54;;;;;;;10.57;7.72;;;972.90;793.60;;;;;;5067922;28;20028;-56
2021/06/29 10:21:22;;;;;;;11.10;7.25;;;972.90;768.00;;;;;;5071110;28;20111;-56
2021/06/29 10:24:09;;;;;;;8.68;7.57;;;972.90;768.00;;;;;;5070773;28;20093;-56
2021/06/29 10:26:39;;;;;;;8.38;7.68;;;972.80;742.40;;;;;;5070575;28;20035;-56
2021/06/29 10:29:08;;;;;;;9.55;7.50;;;972.90;768.00;;;;;;5070867;28;20075;-54
2021/06/29 10:31:49;;;;;;;9.73;8.57;;;973.00;768.00;;;;;;5070907;28;20020;-56
2021/06/29 10:34:15;;;;;;;9.60;8.27;;;972.80;768.00;;;;;;5070720;28;20020;-58
2021/06/29 10:36:47;;;;;;;9.30;8.27;;;972.80;793.60;;;;;;5071114;28;20028;-57
2021/06/29 10:39:16;;;;;;;10.10;8.55;;;948.10;742.40;;;;;;5070064;28;20497;-55
2021/06/29 10:41:58;;;;;;;9.68;8.63;;;972.80;793.60;;;;;;5068831;28;20057;-56
2021/06/29 10:44:26;;;;;;;13.43;8.20;;;972.90;793.60;;;;;;5068623;28;20032;-56
2021/06/29 10:46:55;;;;;;;10.23;8.85;;;948.10;742.40;;;;;;5068994;28;20679;-56
2021/06/29 10:49:42;;;;;;;9.63;8.45;;;948.10;768.00;;;;;;5068730;28;20566;-56
2021/06/29 10:52:31;;;;;;;8.98;7.53;;;947.70;742.40;;;;;;5068820;28;20482;-55
2021/06/29 10:54:59;;;;;;;8.95;7.55;;;947.70;742.40;;;;;;5068529;28;20033;-56
2021/06/29 10:57:40;;;;;;;9.90;7.47;;;947.70;768.00;;;;;;5069094;28;20448;-56
2021/06/29 11:00:22;;;;;;;7.38;6.60;;;948.00;768.00;;;;;;5068704;28;20024;-56
2021/06/29 11:02:57;;;;;;;8.77;7.07;;;948.00;742.40;;;;;;5068368;28;20028;-56
2021/06/29 11:05:32;;;;;;;11.43;7.15;;;948.00;742.40;;;;;;5068428;28;20261;-56
2021/06/29 11:08:08;;;;;;;11.70;7.10;;;948.00;742.40;;;;;;5068590;28;20036;-56
2021/06/29 11:10:36;;;;;;;10.80;7.32;;;948.00;768.00;;;;;;5068629;28;20037;-56
2021/06/29 11:13:03;;;;;;;9.18;7.22;;;948.00;768.00;;;;;;5068679;28;20044;-55
2021/06/29 11:15:42;;;;;;;10.05;7.45;;;948.10;742.40;;;;;;5068285;28;20048;-55
2021/06/29 11:18:09;;;;;;;9.65;6.95;;;948.10;768.00;;;;;;5068310;28;20040;-55
2021/06/29 11:20:38;;;;;;;10.80;6.43;;;948.00;742.40;;;;;;5050365;28;20089;-55
2021/06/29 11:23:05;;;;;;;10.93;7.10;;;948.10;742.40;;;;;;5068790;28;20032;-56
2021/06/29 11:25:45;;;;;;;10.30;6.63;;;947.70;742.40;;;;;;5068608;28;20025;-56
2021/06/29 11:28:30;;;;;;;13.85;7.00;;;947.60;768.00;;;;;;5068541;28;20040;-55
2021/06/29 11:31:01;;;;;;;8.95;7.32;;;947.80;742.40;;;;;;5068262;28;20456;-59
2021/06/29 11:33:55;;;;;;;9.55;6.80;;;948.00;768.00;;;;;;5067772;28;20093;-55
2021/06/29 11:36:31;;;;;;;12.52;6.90;;;948.10;742.40;;;;;;5068340;28;20024;-54
2021/06/29 11:39:13;;;;;;;9.45;6.18;;;973.00;768.00;;;;;;5068118;28;20116;-54
2021/06/29 11:41:41;;;;;;;10.15;7.18;;;972.80;742.40;;;;;;5068437;28;20020;-57
2021/06/29 11:44:06;;;;;;;9.18;6.07;;;973.20;768.00;;;;;;5068184;28;20028;-57
2021/06/29 11:46:55;;;;;;;13.45;6.68;;;973.20;742.40;;;;;;5068012;28;20113;-55
2021/06/29 11:49:45;;;;;;;14.73;6.88;;;973.20;742.40;;;;;;5068198;28;20378;-55
2021/06/29 11:52:13;;;;;;;10.23;6.35;;;973.20;742.40;;;;;;5068128;28;20023;-54
2021/06/29 11:54:56;;;;;;;13.20;7.32;;;972.90;716.80;;;;;;5068059;28;20435;-56
2021/06/29 11:57:21;;;;;;;12.85;7.10;;;948.10;691.20;;;;;;5068213;28;20024;-55
2021/06/29 11:59:49;;;;;;;29.75;10.05;;;948.10;768.00;;;;;;5067518;28;20044;-55
2021/06/29 12:02:23;;;;;;;16.30;7.72;;;948.10;691.20;;;;;;5068161;28;20479;-55
2021/06/29 12:04:52;;;;;;;12.40;7.15;;;972.80;768.00;;;;;;5067804;28;20499;-55
2021/06/29 12:07:31;;;;;;;16.45;7.65;;;972.80;742.40;;;;;;5067842;28;20025;-55
2021/06/29 12:09:57;;;;;;;16.00;7.50;;;973.00;768.00;;;;;;5049533;28;20092;-57
2021/06/29 12:12:25;;;;;;;12.02;7.10;;;973.00;768.00;;;;;;5067549;28;20438;-55
2021/06/29 12:15:04;;;;;;;21.50;7.63;;;973.00;768.00;;;;;;5068899;28;20036;-54
2021/06/29 12:17:29;;;;;;;16.48;7.50;;;973.00;742.40;;;;;;5071666;28;20032;-57